Time;durP1;ratioP1;P1;durP2;ratioP2;P2;SDS_P1;SDS_P2;PMS_P1;PMS_P2;Temp;Humidity;BMP_temperature;BMP_pressure;BME280_temperature;BME280_humidity;BME280_pressure;Samples;Min_cycle;Max_cycle;Signal;HPM_P1;HPM_P2
2022/08/21 00:01:41;;;;;;;18.52;11.20;;;;;;;20.66;100.00;96379.72;4988632;28;20058;-59
2022/08/21 00:04:09;;;;;;;22.73;11.57;;;;;;;18.73;100.00;96076.72;4988298;28;20050;-62
2022/08/21 00:06:40;;;;;;;19.48;11.38;;;;;;;20.69;100.00;96353.47;4988296;28;20081;-59
2022/08/21 00:09:08;;;;;;;23.30;11.15;;;;;;;20.68;100.00;96326.56;4988433;28;20050;-59
2022/08/21 00:11:36;;;;;;;20.40;12.25;;;;;;;20.89;100.00;96311.75;4988069;28;20046;-63
2022/08/21 00:14:07;;;;;;;22.10;12.20;;;;;;;20.82;100.00;96303.53;4988211;28;20050;-59
2022/08/21 00:16:34;;;;;;;20.00;11.35;;;;;;;20.90;100.00;96328.19;4988242;28;20077;-62
2022/08/21 00:19:01;;;;;;;19.30;11.25;;;;;;;20.39;100.00;96253.56;4986536;28;20058;-59
2022/08/21 00:21:28;;;;;;;20.73;11.07;;;;;;;20.81;100.00;96330.13;4988116;28;20336;-59
2022/08/21 00:23:55;;;;;;;21.23;11.45;;;;;;;20.64;100.00;96306.19;4987608;28;20066;-60
2022/08/21 00:26:21;;;;;;;18.42;11.45;;;;;;;20.66;100.00;96296.06;4986608;28;20429;-62
2022/08/21 00:28:48;;;;;;;18.75;11.43;;;;;;;20.63;100.00;96298.97;4986395;28;20062;-59
2022/08/21 00:31:16;;;;;;;19.55;10.32;;;;;;;20.90;100.00;96313.31;4988188;28;20062;-60
2022/08/21 00:33:42;;;;;;;16.55;10.55;;;;;;;20.96;100.00;96314.34;4987723;28;20433;-59
2022/08/21 00:36:10;;;;;;;19.73;10.10;;;;;;;20.88;100.00;96308.13;4987496;28;20549;-60
2022/08/21 00:38:37;;;;;;;16.17;9.70;;;;;;;20.88;100.00;96313.00;4987515;28;20062;-61
2022/08/21 00:41:06;;;;;;;19.55;9.13;;;;;;;20.89;100.00;96311.75;4987792;28;20051;-59
2022/08/21 00:43:53;;;;;;;18.50;9.07;;;;;;;20.56;100.00;96240.94;4987577;28;20054;-62
2022/08/21 00:46:20;;;;;;;15.10;9.80;;;;;;;20.79;100.00;96267.84;4986118;28;20061;-59
2022/08/21 00:48:50;;;;;;;20.27;9.50;;;;;;;20.55;100.00;96230.91;4986167;28;20050;-59
2022/08/21 00:51:28;;;;;;;22.67;10.20;;;;;;;21.05;100.00;96303.16;4987538;28;20085;-59
2022/08/21 00:54:00;;;;;;;18.98;10.15;;;;;;;21.17;100.00;96305.13;4987659;28;20062;-60
2022/08/21 00:56:28;;;;;;;17.30;8.85;;;;;;;21.21;100.00;96296.56;4987534;28;20057;-59
2022/08/21 00:58:58;;;;;;;21.25;9.70;;;;;;;21.28;100.00;96302.72;4987218;28;20061;-59
2022/08/21 01:01:24;;;;;;;19.35;9.27;;;;;;;21.34;100.00;96305.75;4985795;28;20434;-59
2022/08/21 01:03:51;;;;;;;21.80;9.60;;;;;;;21.06;100.00;96245.59;4987176;28;20105;-59
2022/08/21 01:06:18;;;;;;;16.73;9.40;;;;;;;21.56;100.00;96307.28;4986578;28;20121;-61
2022/08/21 01:08:46;;;;;;;17.35;9.90;;;;;;;21.48;100.00;96317.25;4986683;28;20097;-61
2022/08/21 01:11:15;;;;;;;19.60;9.48;;;;;;;21.26;100.00;96310.81;4985750;28;20140;-59
2022/08/21 01:13:45;;;;;;;17.27;9.43;;;;;;;20.99;100.00;96324.72;4986806;28;20465;-62
2022/08/21 01:16:16;;;;;;;15.57;9.55;;;;;;;20.91;100.00;96317.72;4986770;28;20054;-59
2022/08/21 01:18:44;;;;;;;18.33;9.32;;;;;;;20.73;100.00;96320.34;4986548;28;20058;-60
2022/08/21 01:21:23;;;;;;;19.30;10.23;;;;;;;20.68;100.00;96326.56;5001738;28;20132;-61
2022/08/21 01:23:55;;;;;;;19.20;10.00;;;;;;;20.68;100.00;96332.19;4986507;28;20141;-59
2022/08/21 01:26:25;;;;;;;20.27;10.65;;;;;;;20.60;100.00;96330.84;4986587;28;20513;-58
2022/08/21 01:29:02;;;;;;;19.58;10.93;;;;;;;20.66;100.00;96334.69;4985906;28;20525;-60
2022/08/21 01:31:31;;;;;;;22.42;11.93;;;;;;;20.67;100.00;96330.63;4986375;28;20076;-61
2022/08/21 01:33:57;;;;;;;17.58;11.30;;;;;;;20.51;100.00;96271.66;4986742;28;20523;-61
2022/08/21 01:36:25;;;;;;;28.58;14.57;;;;;;;21.02;100.00;96335.06;4984963;28;20066;-59
2022/08/21 01:38:51;;;;;;;21.38;12.05;;;;;;;20.78;100.00;96263.47;4986712;28;20062;-59
2022/08/21 01:41:18;;;;;;;14.75;9.85;;;;;;;21.05;100.00;96317.25;4986403;28;20057;-61
2022/08/21 01:43:45;;;;;;;16.10;10.40;;;;;;;21.14;100.00;96314.50;4986444;28;20061;-59
2022/08/21 01:46:12;;;;;;;18.80;9.63;;;;;;;20.91;100.00;96262.19;4986036;28;20109;-59
2022/08/21 01:48:40;;;;;;;14.73;10.55;;;;;;;20.90;100.00;96277.50;4984977;28;20433;-59
2022/08/21 01:51:07;;;;;;;16.75;10.80;;;;;;;21.28;100.00;96313.97;4984504;28;20050;-59
2022/08/21 01:53:36;;;;;;;20.40;11.88;;;;;;;21.33;100.00;96304.94;4986201;28;20050;-60
2022/08/21 01:56:05;;;;;;;19.30;10.82;;;;;;;21.36;100.00;96304.03;4986450;28;20166;-62
2022/08/21 01:58:42;;;;;;;19.92;10.73;;;;;;;21.36;100.00;96292.75;4985880;28;20710;-59
2022/08/21 02:01:10;;;;;;;24.98;10.52;;;;;;;21.41;100.00;96295.00;4984288;28;20054;-61
2022/08/21 02:03:37;;;;;;;16.17;10.40;;;;;;;21.44;100.00;96298.91;4986270;28;20138;-62
2022/08/21 02:06:06;;;;;;;16.38;9.50;;;;;;;21.31;100.00;96290.53;4986487;28;20057;-59
2022/08/21 02:08:34;;;;;;;15.32;8.95;;;;;;;21.31;100.00;96282.06;4986423;28;20061;-59
2022/08/21 02:11:01;;;;;;;16.75;9.35;;;;;;;20.71;100.00;96187.72;4985962;28;20058;-60
2022/08/21 02:13:27;;;;;;;20.38;9.85;;;;;;;21.25;100.00;96298.00;4984671;28;20141;-59
2022/08/21 02:15:54;;;;;;;15.98;9.60;;;;;;;21.27;100.00;96294.72;4986312;28;20497;-59
2022/08/21 02:18:21;;;;;;;18.52;10.77;;;;;;;21.16;100.00;96309.19;4983999;28;20058;-62
2022/08/21 02:20:49;;;;;;;15.95;9.70;;;;;;;21.14;100.00;96303.22;4985977;28;20069;-62
2022/08/21 02:23:23;;;;;;;19.33;10.55;;;;;;;21.06;100.00;96284.22;4985459;28;20081;-62
2022/08/21 02:25:58;;;;;;;21.23;10.80;;;;;;;21.12;100.00;96302.91;4986076;28;20062;-61
2022/08/21 02:28:25;;;;;;;18.70;9.63;;;;;;;20.80;100.00;96261.00;4985461;28;20050;-59
2022/08/21 02:30:54;;;;;;;23.73;10.35;;;;;;;21.11;100.00;96306.97;4985619;28;20050;-60
2022/08/21 02:33:22;;;;;;;16.05;9.40;;;;;;;20.99;100.00;96308.59;4985373;28;20463;-58
2022/08/21 02:35:50;;;;;;;17.08;9.45;;;;;;;21.06;100.00;96307.53;4985401;28;20065;-60
2022/08/21 02:38:22;;;;;;;20.35;9.90;;;;;;;20.84;100.00;96272.91;4985187;28;20070;-59
2022/08/21 02:40:50;;;;;;;19.67;8.95;;;;;;;21.02;100.00;96300.47;4984429;28;20308;-60
2022/08/21 02:43:19;;;;;;;15.93;9.60;;;;;;;20.95;100.00;96295.84;4985056;28;20062;-59
2022/08/21 02:45:49;;;;;;;22.83;10.10;;;;;;;21.05;100.00;96317.25;4985646;28;20073;-59
2022/08/21 02:48:20;;;;;;;21.30;10.43;;;;;;;21.02;100.00;96318.16;4985008;28;20046;-59
2022/08/21 02:50:52;;;;;;;24.98;10.73;;;;;;;21.04;100.00;96326.91;4984117;28;20050;-60
2022/08/21 02:53:19;;;;;;;18.27;10.07;;;;;;;20.70;100.00;96279.03;4985230;28;20057;-59
2022/08/21 02:55:49;;;;;;;27.98;10.98;;;;;;;21.10;100.00;96347.66;4985696;28;20069;-61
2022/08/21 02:58:24;;;;;;;21.98;10.10;;;;;;;21.01;100.00;96344.72;4999933;28;20050;-60
2022/08/21 03:00:52;;;;;;;15.85;9.85;;;;;;;20.95;100.00;96347.31;4984979;28;20054;-62
2022/08/21 03:03:19;;;;;;;20.02;10.10;;;;;;;20.65;100.00;96299.31;4985240;28;20520;-59
2022/08/21 03:05:45;;;;;;;25.02;10.18;;;;;;;21.01;100.00;96353.19;4985345;28;20050;-59
2022/08/21 03:08:14;;;;;;;17.23;10.15;;;;;;;21.11;100.00;96348.41;4985419;28;20050;-60
2022/08/21 03:10:44;;;;;;;18.63;9.70;;;;;;;21.05;100.00;96351.03;4985342;28;20560;-58
2022/08/21 03:13:12;;;;;;;14.38;9.95;;;;;;;20.99;100.00;96358.50;4985221;28;20057;-60
2022/08/21 03:15:39;;;;;;;19.13;10.00;;;;;;;20.65;100.00;96304.94;4985212;28;20425;-58
2022/08/21 03:18:07;;;;;;;20.40;10.05;;;;;;;20.85;100.00;96364.56;4983694;28;20058;-59
2022/08/21 03:20:35;;;;;;;23.48;10.82;;;;;;;20.87;100.00;96362.09;4985216;28;20332;-59
2022/08/21 03:23:03;;;;;;;18.15;9.65;;;;;;;20.27;100.00;96290.94;4984920;28;20050;-60
2022/08/21 03:25:40;;;;;;;18.70;10.25;;;;;;;20.77;100.00;96374.53;4983647;28;20066;-60
2022/08/21 03:28:11;;;;;;;20.48;11.05;;;;;;;20.86;100.00;96363.34;4999682;28;20449;-60
2022/08/21 03:30:46;;;;;;;18.80;10.77;;;;;;;20.40;100.00;96299.38;4986548;28;20069;-58
2022/08/21 03:33:14;;;;;;;15.77;10.88;;;;;;;20.85;100.00;96358.94;4988696;28;20054;-59
2022/08/21 03:35:43;;;;;;;24.02;12.40;;;;;;;21.01;100.00;96378.53;4988746;28;20141;-58
2022/08/21 03:38:12;;;;;;;15.43;10.73;;;;;;;21.03;100.00;96376.06;4988608;28;20469;-59
2022/08/21 03:40:41;;;;;;;23.65;11.38;;;;;;;21.11;100.00;96376.59;4986621;28;20148;-61
2022/08/21 03:43:09;;;;;;;22.48;10.55;;;;;;;20.84;100.00;96323.59;4988565;28;20054;-58
2022/08/21 03:45:37;;;;;;;13.85;9.70;;;;;;;21.13;100.00;96380.53;4988607;28;20054;-59
2022/08/21 03:48:04;;;;;;;16.77;10.23;;;;;;;21.16;100.00;96376.00;4987283;28;20058;-61
2022/08/21 03:50:36;;;;;;;18.40;11.32;;;;;;;21.17;100.00;96380.41;4988615;28;20046;-62
2022/08/21 03:53:11;;;;;;;18.48;10.10;;;;;;;21.22;100.00;96377.00;4986743;28;20062;-60
2022/08/21 03:55:48;;;;;;;17.63;8.32;;;;;;;20.94;100.00;96347.78;4988562;28;20565;-59
2022/08/21 03:58:17;;;;;;;15.30;6.47;;;;;;;21.19;99.72;96384.34;4988391;28;20050;-60
2022/08/21 04:00:50;;;;;;;15.93;6.25;;;;;;;20.82;100.00;96349.38;4988356;28;20046;-62
2022/08/21 04:03:17;;;;;;;14.85;6.25;;;;;;;21.08;100.00;96389.56;4987206;28;20121;-58
2022/08/21 04:05:45;;;;;;;15.57;6.55;;;;;;;21.12;100.00;96387.41;4986632;28;20046;-58
2022/08/21 04:08:13;;;;;;;11.90;6.40;;;;;;;21.11;100.00;96388.66;4987993;28;20054;-60
2022/08/21 04:10:46;;;;;;;15.50;6.63;;;;;;;21.23;99.37;96392.69;4987849;28;20055;-60
2022/08/21 04:13:14;;;;;;;13.23;5.70;;;;;;;20.29;97.29;96242.69;4988293;28;20061;-61
2022/08/21 04:15:41;;;;;;;10.88;6.25;;;;;;;21.30;97.15;96387.56;4986812;28;20062;-59
2022/08/21 04:18:08;;;;;;;15.32;6.22;;;;;;;21.32;96.92;96381.47;4987768;28;20050;-61
2022/08/21 04:20:35;;;;;;;14.70;7.00;;;;;;;21.33;97.79;96366.94;4988063;28;20053;-60
2022/08/21 04:23:02;;;;;;;14.35;6.63;;;;;;;21.27;95.96;96346.22;4987664;28;20038;-59
2022/08/21 04:25:29;;;;;;;15.20;6.15;;;;;;;20.96;95.06;96303.06;4987064;28;20065;-61
2022/08/21 04:27:56;;;;;;;14.93;6.28;;;;;;;21.18;100.00;96371.50;4987357;28;20069;-59
2022/08/21 04:30:24;;;;;;;16.23;6.95;;;;;;;21.32;97.41;96375.84;4987940;28;20113;-60
2022/08/21 04:32:56;;;;;;;12.25;6.28;;;;;;;21.15;97.44;96349.88;4986605;28;20583;-60
2022/08/21 04:35:24;;;;;;;20.73;6.18;;;;;;;21.41;95.40;96371.06;4987822;28;20065;-59
2022/08/21 04:37:51;;;;;;;11.65;6.13;;;;;;;21.27;95.47;96320.06;4986274;28;20055;-61
2022/08/21 04:40:19;;;;;;;11.88;5.60;;;;;;;21.82;93.82;96381.25;4987680;28;20936;-59
2022/08/21 04:42:52;;;;;;;11.70;5.50;;;;;;;21.86;93.54;96360.13;4987241;28;20140;-60
2022/08/21 04:45:25;;;;;;;15.55;7.07;;;;;;;22.05;93.50;96384.38;4987330;28;20058;-60
2022/08/21 04:47:55;;;;;;;16.15;6.82;;;;;;;22.11;93.52;96387.41;4987425;28;20081;-61
2022/08/21 04:50:29;;;;;;;15.85;6.85;;;;;;;22.03;94.74;96381.25;4987379;28;20149;-62
2022/08/21 04:52:57;;;;;;;21.60;7.07;;;;;;;21.86;96.31;96385.50;4986036;28;20077;-59
2022/08/21 04:55:27;;;;;;;13.60;6.70;;;;;;;22.04;94.55;96388.47;4987333;28;20061;-62
2022/08/21 04:57:56;;;;;;;10.95;6.13;;;;;;;22.17;94.48;96383.53;4987254;28;20076;-61
2022/08/21 05:00:24;;;;;;;15.40;7.75;;;;;;;21.71;99.23;96387.28;4987207;28;20054;-60
2022/08/21 05:02:56;;;;;;;14.68;7.65;;;;;;;21.48;99.55;96390.53;4985464;28;20057;-61
2022/08/21 05:05:24;;;;;;;19.60;7.55;;;;;;;21.37;100.00;96390.13;4985722;28;20101;-60
2022/08/21 05:07:52;;;;;;;11.75;7.00;;;;;;;21.21;100.00;96384.69;4987046;28;20683;-60
2022/08/21 05:10:20;;;;;;;18.08;7.18;;;;;;;20.74;100.00;96358.50;4985327;28;20454;-61
2022/08/21 05:12:47;;;;;;;15.20;6.88;;;;;;;21.12;100.00;96373.31;4985676;28;20054;-61
2022/08/21 05:15:13;;;;;;;7.65;5.20;;;;;;;21.23;97.59;96345.56;4985332;28;20057;-61
2022/08/21 05:17:41;;;;;;;16.75;6.18;;;;;;;21.53;94.58;96375.84;4986890;28;20050;-59
2022/08/21 05:20:09;;;;;;;13.48;7.15;;;;;;;21.69;93.91;96395.41;4985485;28;20053;-60
2022/08/21 05:22:37;;;;;;;10.68;7.55;;;;;;;21.72;93.93;96393.72;4985191;28;20061;-60
2022/08/21 05:25:05;;;;;;;15.88;6.63;;;;;;;21.24;94.36;96324.59;4986704;28;20430;-60
2022/08/21 05:27:37;;;;;;;14.85;6.03;;;;;;;21.68;95.56;96404.31;4986815;28;20053;-59
2022/08/21 05:30:07;;;;;;;11.50;5.72;;;;;;;21.67;94.33;96392.25;4986972;28;20129;-60
2022/08/21 05:32:35;;;;;;;12.32;5.68;;;;;;;21.69;94.14;96380.50;4986474;28;20137;-60
2022/08/21 05:35:04;;;;;;;17.98;6.28;;;;;;;21.85;92.91;96378.31;4986701;28;20054;-60
2022/08/21 05:37:31;;;;;;;14.88;6.15;;;;;;;21.75;89.81;96356.94;4984724;28;20073;-60
2022/08/21 05:39:59;;;;;;;11.15;6.50;;;;;;;21.46;86.94;96310.50;4984988;28;20625;-60
2022/08/21 05:42:46;;;;;;;14.65;6.75;;;;;;;21.88;86.92;96368.94;4986151;28;20054;-60
2022/08/21 05:45:31;;;;;;;17.65;7.70;;;;;;;21.73;87.46;96356.59;4986487;28;20053;-59
2022/08/21 05:48:30;;;;;;;14.55;6.55;;;;;;;21.55;89.62;96359.28;4986466;28;20090;-61
2022/08/21 05:50:57;;;;;;;17.13;6.70;;;;;;;21.23;93.91;96359.63;4986074;28;20413;-61
2022/08/21 05:53:25;;;;;;;18.05;8.52;;;;;;;20.90;99.69;96364.00;4984130;28;20520;-60
2022/08/21 05:55:52;;;;;;;16.70;8.60;;;;;;;20.54;100.00;96411.47;4985997;28;20050;-61
2022/08/21 05:58:20;;;;;;;14.57;8.50;;;;;;;20.50;100.00;96365.78;4983753;28;20443;-59
2022/08/21 06:00:49;;;;;;;17.23;9.30;;;;;;;20.25;100.00;96377.03;4985852;28;20462;-60
2022/08/21 06:03:25;;;;;;;13.75;8.57;;;;;;;20.07;100.00;96365.50;4984787;28;20046;-61
2022/08/21 06:05:53;;;;;;;19.33;9.00;;;;;;;19.72;100.00;96341.28;4985911;28;20057;-61
2022/08/21 06:08:20;;;;;;;19.70;9.55;;;;;;;19.73;100.00;96354.13;4984694;28;20509;-59
2022/08/21 06:10:49;;;;;;;16.03;9.80;;;;;;;19.78;100.00;96376.03;4744634;28;5001758;-61
2022/08/21 06:13:18;;;;;;;16.08;9.68;;;;;;;19.77;100.00;96374.47;4992470;28;20085;-62
2022/08/21 06:15:45;;;;;;;15.90;10.52;;;;;;;19.58;100.00;96334.84;4985598;28;20147;-62
2022/08/21 06:18:12;;;;;;;21.95;11.35;;;;;;;19.96;100.00;96381.91;4984310;28;20053;-61
2022/08/21 06:20:40;;;;;;;19.80;11.15;;;;;;;19.73;100.00;96328.81;4983389;28;20062;-61
2022/08/21 06:23:07;;;;;;;20.83;10.30;;;;;;;20.12;100.00;96373.41;4984881;28;20062;-61
2022/08/21 06:25:34;;;;;;;17.45;11.02;;;;;;;20.27;100.00;96380.16;4983745;28;20070;-61
2022/08/21 06:28:04;;;;;;;18.67;11.48;;;;;;;20.51;100.00;96367.34;4985685;28;20050;-60
2022/08/21 06:30:31;;;;;;;18.38;11.23;;;;;;;20.59;100.00;96346.16;4985749;28;20080;-60
2022/08/21 06:32:58;;;;;;;22.23;13.57;;;;;;;21.16;100.00;96384.47;4983794;28;20061;-60
2022/08/21 06:35:25;;;;;;;19.67;13.40;;;;;;;21.51;100.00;96384.00;4985761;28;20058;-60
2022/08/21 06:37:52;;;;;;;17.67;11.23;;;;;;;21.65;100.00;96355.28;4998490;28;20056;-59
2022/08/21 06:40:19;;;;;;;17.30;11.73;;;;;;;22.09;100.00;96373.75;5004960;28;20061;-60
2022/08/21 06:42:47;;;;;;;22.65;11.27;;;;;;;22.49;100.00;96391.50;5004992;28;20523;-60
2022/08/21 06:45:13;;;;;;;20.02;11.38;;;;;;;22.42;100.00;96352.28;5004918;28;20050;-59
2022/08/21 06:47:40;;;;;;;19.15;11.73;;;;;;;23.01;100.00;96395.47;5004326;28;20058;-60
2022/08/21 06:50:07;;;;;;;13.30;9.85;;;;;;;23.15;99.47;96386.38;5004475;28;20055;-60
2022/08/21 06:52:36;;;;;;;21.10;11.18;;;;;;;23.35;99.47;96393.19;5005405;28;20088;-60
2022/08/21 06:55:06;;;;;;;16.17;9.75;;;;;;;23.35;96.23;96390.34;5004689;28;20061;-60
2022/08/21 06:57:33;;;;;;;15.50;10.57;;;;;;;23.43;99.40;96396.47;5004363;28;20112;-62
2022/08/21 07:00:00;;;;;;;18.63;11.25;;;;;;;23.48;96.74;96393.03;5004120;28;20875;-60
2022/08/21 07:02:26;;;;;;;15.20;10.45;;;;;;;22.89;96.75;96306.75;5003222;28;20576;-60
2022/08/21 07:04:53;;;;;;;20.23;11.13;;;;;;;23.27;98.90;96391.13;5003508;28;20056;-60
2022/08/21 07:07:20;;;;;;;19.80;11.18;;;;;;;23.16;100.00;96376.63;5008308;28;20053;-60
2022/08/21 07:09:47;;;;;;;22.00;11.35;;;;;;;23.06;99.45;96366.59;5008871;28;20092;-59
2022/08/21 07:12:13;;;;;;;13.00;9.80;;;;;;;23.29;96.11;96385.78;5007062;28;20471;-60
2022/08/21 07:14:40;;;;;;;17.85;10.35;;;;;;;23.26;95.03;96386.75;5007530;28;20061;-60
2022/08/21 07:17:07;;;;;;;21.77;11.40;;;;;;;22.98;100.00;96387.94;5008233;28;20050;-60
2022/08/21 07:19:33;;;;;;;25.65;11.90;;;;;;;22.90;100.00;96384.63;5008379;28;20054;-59
2022/08/21 07:22:02;;;;;;;18.92;11.30;;;;;;;23.30;93.88;96381.72;5007901;28;20547;-59
2022/08/21 07:24:29;;;;;;;32.88;12.57;;;;;;;23.70;94.33;96388.00;5007970;28;20061;-60
2022/08/21 07:26:55;;;;;;;37.85;13.63;;;;;;;23.94;93.08;96363.47;5008059;28;20050;-59
2022/08/21 07:29:22;;;;;;;35.13;13.75;;;;;;;24.07;95.45;96351.97;5008484;28;20517;-60
2022/08/21 07:31:49;;;;;;;19.00;11.63;;;;;;;24.62;92.09;96373.97;5008469;28;20054;-60
2022/08/21 07:34:16;;;;;;;17.55;12.23;;;;;;;24.75;91.84;96380.25;5008165;28;20046;-61
2022/08/21 07:36:42;;;;;;;14.20;8.80;;;;;;;24.88;85.32;96371.50;5003523;28;20046;-61
2022/08/21 07:39:10;;;;;;;16.10;9.00;;;;;;;24.93;84.42;96354.63;4988095;28;20410;-60
2022/08/21 07:41:37;;;;;;;20.75;8.45;;;;;;;25.03;82.12;96370.31;4988502;28;20098;-61
2022/08/21 07:44:04;;;;;;;17.90;9.70;;;;;;;25.17;83.45;96351.78;4986731;28;20061;-61
2022/08/21 07:46:32;;;;;;;16.48;9.88;;;;;;;25.29;82.29;96360.03;4987758;28;20077;-60
2022/08/21 07:48:59;;;;;;;13.45;8.88;;;;;;;25.29;80.33;96348.69;4986672;28;20055;-61
2022/08/21 07:51:28;;;;;;;18.33;9.73;;;;;;;25.71;80.07;96334.34;4988344;28;20047;-61
2022/08/21 07:53:57;;;;;;;15.80;10.32;;;;;;;25.79;77.46;96317.72;4988111;28;20054;-59
2022/08/21 07:56:25;;;;;;;10.90;8.77;;;;;;;26.08;75.06;96344.09;4987865;28;20058;-60
2022/08/21 07:58:52;;;;;;;13.45;9.55;;;;;;;26.51;72.59;96351.00;4986335;28;20058;-59
2022/08/21 08:01:19;;;;;;;12.52;8.95;;;;;;;26.74;73.01;96341.59;4987829;28;20480;-60
2022/08/21 08:03:47;;;;;;;17.25;10.23;;;;;;;25.87;76.13;96341.59;4987658;28;20246;-59
2022/08/21 08:06:13;;;;;;;18.45;9.88;;;;;;;26.03;75.29;96321.28;4987470;28;20046;-59
2022/08/21 08:08:41;;;;;;;21.38;10.88;;;;;;;26.39;76.68;96337.91;4987518;28;20061;-59
2022/08/21 08:11:14;;;;;;;15.15;9.55;;;;;;;26.44;74.47;96345.75;4987826;28;20061;-60
2022/08/21 08:13:43;;;;;;;15.63;10.57;;;;;;;26.45;75.25;96348.09;4988358;28;20054;-60
2022/08/21 08:16:10;;;;;;;16.45;10.88;;;;;;;25.71;75.96;96333.56;4987688;28;20062;-59
2022/08/21 08:18:37;;;;;;;17.75;9.13;;;;;;;25.41;76.06;96326.25;4988055;28;20058;-60
2022/08/21 08:21:05;;;;;;;17.80;10.20;;;;;;;24.94;78.98;96339.16;4984546;28;20069;-59
2022/08/21 08:23:32;;;;;;;15.32;9.85;;;;;;;25.62;75.92;96330.81;4985973;28;20061;-59
2022/08/21 08:25:59;;;;;;;15.77;10.27;;;;;;;25.94;76.28;96324.19;4985862;28;20062;-60
2022/08/21 08:28:27;;;;;;;13.20;10.07;;;;;;;26.34;75.79;96327.22;4986353;28;20050;-59
2022/08/21 08:30:53;;;;;;;13.13;9.43;;;;;;;26.19;72.66;96289.56;4986623;28;20051;-60
2022/08/21 08:33:21;;;;;;;10.40;8.38;;;;;;;26.16;71.65;96330.28;4986093;28;20047;-60
2022/08/21 08:35:49;;;;;;;12.38;8.23;;;;;;;26.42;69.83;96319.88;4984570;28;20611;-59
2022/08/21 08:38:19;;;;;;;14.35;8.15;;;;;;;26.40;71.66;96277.75;5000968;28;20366;-61
2022/08/21 08:41:08;;;;;;;17.98;9.07;;;;;;;26.66;71.88;96312.03;5002964;28;20061;-60
2022/08/21 08:43:35;;;;;;;11.73;8.40;;;;;;;27.15;68.24;96308.28;5005260;28;20057;-59
2022/08/21 08:46:10;;;;;;;8.73;7.63;;;;;;;27.36;65.70;96319.19;5005079;28;20054;-60
2022/08/21 08:48:56;;;;;;;14.10;7.95;;;;;;;27.26;68.69;96300.72;5005693;28;20057;-60
2022/08/21 08:52:00;;;;;;;13.68;8.43;;;;;;;27.32;66.43;96298.72;5006032;28;20452;-60
2022/08/21 08:54:33;;;;;;;12.00;8.50;;;;;;;27.47;65.56;96296.59;5006930;28;20057;-61
2022/08/21 08:57:02;;;;;;;14.02;8.32;;;;;;;27.52;64.28;96284.47;5006783;28;20552;-61
2022/08/21 08:59:57;;;;;;;16.00;8.35;;;;;;;27.47;65.91;96290.09;5006709;28;20058;-60
2022/08/21 09:02:27;;;;;;;13.48;8.35;;;;;;;27.52;66.19;96293.00;5006032;28;20053;-60
2022/08/21 09:04:54;;;;;;;13.38;8.50;;;;;;;27.40;65.54;96240.13;5007114;28;20050;-61
2022/08/21 09:07:35;;;;;;;10.27;7.88;;;;;;;27.70;66.33;96281.31;5005198;28;20524;-60
2022/08/21 09:10:13;;;;;;;14.13;8.25;;;;;;;27.29;66.64;96285.50;5006749;28;20050;-60
2022/08/21 09:12:55;;;;;;;10.75;7.95;;;;;;;27.43;66.94;96278.94;5007237;28;20053;-60
2022/08/21 09:15:36;;;;;;;12.73;8.60;;;;;;;27.25;68.16;96273.50;4996517;28;20208;-60
2022/08/21 09:18:36;;;;;;;11.40;9.20;;;;;;;27.69;66.82;96274.06;5005674;28;20144;-59
2022/08/21 09:21:12;;;;;;;16.52;8.35;;;;;;;28.16;64.82;96275.56;5005925;28;20564;-59
2022/08/21 09:24:04;;;;;;;13.82;9.70;;;;;;;28.58;63.68;96280.56;5005231;28;20058;-60
2022/08/21 09:26:48;;;;;;;17.50;9.07;;;;;;;28.59;62.97;96259.31;5004660;28;20061;-61
2022/08/21 09:29:17;;;;;;;;;;;;;;;28.82;62.91;96301.72;5005982;28;20110;-60
2022/08/21 09:31:44;;;;;;;12.82;8.13;;;;;;;28.61;63.71;96256.75;5006213;28;19926;-60
2022/08/21 09:34:12;;;;;;;9.32;8.40;;;;;;;28.45;64.36;96254.53;5004868;28;20428;-59
2022/08/21 09:36:49;;;;;;;16.40;9.18;;;;;;;28.83;63.97;96251.19;5004098;28;20496;-60
2022/08/21 09:39:42;;;;;;;10.50;8.32;;;;;;;28.62;62.71;96252.59;4986629;28;20105;-62
2022/08/21 09:42:23;;;;;;;16.77;8.70;;;;;;;28.86;61.60;96261.56;4985971;28;20050;-60
2022/08/21 09:45:06;;;;;;;10.02;7.35;;;;;;;28.86;60.12;96255.84;4986442;28;20061;-60
2022/08/21 09:47:32;;;;;;;12.43;8.25;;;;;;;28.60;61.97;96244.56;4986374;28;20058;-61
2022/08/21 09:50:09;;;;;;;8.93;8.02;;;;;;;28.85;61.44;96262.88;4989026;28;20062;-60
2022/08/21 09:52:43;;;;;;;12.38;7.93;;;;;;;28.57;61.22;96244.78;5005804;28;20061;-60
2022/08/21 09:58:07;;;;;;;15.75;7.82;;;;;;;28.96;60.42;96255.13;5005671;28;20111;-60
2022/08/21 10:00:35;;;;;;;9.57;8.07;;;;;;;28.89;60.95;96266.25;5005714;28;20058;-60
2022/08/21 10:03:28;;;;;;;11.25;7.47;;;;;;;29.13;58.97;96258.84;5005430;28;20058;-59
2022/08/21 10:06:05;;;;;;;9.63;7.78;;;;;;;28.76;59.78;96261.00;5006179;28;20060;-60
2022/08/21 10:08:37;;;;;;;11.73;8.43;;;;;;;28.85;60.19;96220.09;5005612;28;20060;-61
2022/08/21 10:11:09;;;;;;;9.05;7.95;;;;;;;29.04;59.14;96255.41;5006041;28;20062;-59
2022/08/21 10:13:56;;;;;;;12.45;7.53;;;;;;;28.98;60.05;96228.94;5005161;28;20544;-59
2022/08/21 10:16:41;;;;;;;11.38;7.72;;;;;;;29.48;60.18;96249.94;5005834;28;20054;-60
2022/08/21 10:19:30;;;;;;;10.40;7.28;;;;;;;29.81;58.50;96255.75;5005610;28;20060;-59
2022/08/21 10:22:14;;;;;;;12.73;8.38;;;;;;;30.03;57.56;96255.75;5005354;28;20054;-60
2022/08/21 10:25:27;;;;;;;12.95;7.70;;;;;;;30.37;56.93;96245.13;5005145;28;20072;-60
2022/08/21 10:28:05;;;;;;;10.45;7.50;;;;;;;30.70;55.05;96251.56;5004857;28;20115;-60
2022/08/21 10:31:05;;;;;;;10.57;7.60;;;;;;;30.72;54.44;96243.25;5005233;28;20049;-60
2022/08/21 10:34:00;;;;;;;9.30;8.02;;;;;;;30.50;53.09;96180.41;5005260;28;20058;-59
2022/08/21 10:36:37;;;;;;;10.65;8.32;;;;;;;30.66;54.51;96250.28;5006274;28;20057;-60
2022/08/21 10:39:07;;;;;;;8.80;7.47;;;;;;;30.92;52.72;96245.81;4985410;28;20054;-59
2022/08/21 10:41:52;;;;;;;14.10;8.90;;;;;;;30.38;53.98;96247.44;4985644;28;20477;-59
2022/08/21 10:45:01;;;;;;;15.63;8.50;;;;;;;29.97;53.40;96212.09;4984077;28;20054;-60
2022/08/21 10:47:35;;;;;;;8.90;8.00;;;;;;;30.53;53.67;96247.19;4985627;28;20525;-58
2022/08/21 10:50:48;;;;;;;8.63;7.28;;;;;;;30.13;54.02;96242.75;4985373;28;20058;-60
2022/08/21 10:53:32;;;;;;;9.77;6.97;;;;;;;30.03;54.31;96237.81;5002183;28;20101;-60
2022/08/21 10:56:11;;;;;;;9.73;7.18;;;;;;;30.07;54.72;96236.28;4984301;28;20105;-59
2022/08/21 10:58:45;;;;;;;12.55;8.50;;;;;;;30.15;53.12;96208.75;4983828;28;20565;-59
2022/08/21 11:01:24;;;;;;;10.15;7.38;;;;;;;30.00;54.20;96198.88;4985528;28;20137;-59
2022/08/21 11:04:09;;;;;;;9.23;8.32;;;;;;;30.24;53.86;96231.34;4985111;28;20579;-59
2022/08/21 11:06:40;;;;;;;8.50;6.90;;;;;;;29.61;55.30;96173.09;4985277;28;20061;-60
2022/08/21 11:09:20;;;;;;;9.10;7.85;;;;;;;29.60;54.67;96200.13;4984756;28;20124;-60
2022/08/21 11:12:06;;;;;;;9.05;7.55;;;;;;;29.75;54.65;96234.94;4985498;28;20062;-58
2022/08/21 11:14:56;;;;;;;10.95;6.95;;;;;;;29.55;54.50;96220.84;4985324;28;20046;-60
2022/08/21 11:17:33;;;;;;;9.43;7.03;;;;;;;29.55;55.31;96227.34;4985153;28;20050;-60
2022/08/21 11:20:15;;;;;;;15.20;8.13;;;;;;;28.96;55.83;96220.91;4983885;28;20063;-59
2022/08/21 11:22:56;;;;;;;10.23;7.22;;;;;;;28.98;55.99;96154.78;4985340;28;20175;-61
2022/08/21 11:25:29;;;;;;;12.27;6.55;;;;;;;29.72;54.15;96218.06;4985206;28;20141;-60
2022/08/21 11:28:13;;;;;;;13.15;7.25;;;;;;;29.96;52.97;96210.56;4985362;28;20057;-60
2022/08/21 11:31:06;;;;;;;7.03;6.22;;;;;;;30.12;54.59;96206.91;4985227;28;20488;-62
2022/08/21 11:34:07;;;;;;;10.27;6.07;;;;;;;30.09;53.68;96207.97;4985115;28;20516;-60
2022/08/21 11:36:45;;;;;;;12.93;6.28;;;;;;;29.81;53.64;96163.56;4985382;28;20531;-60
2022/08/21 11:39:20;;;;;;;5.95;5.07;;;;;;;30.09;51.90;96195.75;4985006;28;20062;-59
2022/08/21 11:41:59;;;;;;;6.93;5.78;;;;;;;30.38;51.94;96195.25;4985204;28;20058;-60
2022/08/21 11:44:26;;;;;;;7.18;6.30;;;;;;;30.50;50.77;96191.84;4985364;28;20058;-60